createdAt,value
2023-01-06T00:01:35.259Z,101197.34
2023-01-06T00:04:03.171Z,101197.34
2023-01-06T00:06:32.033Z,101194.00
2023-01-06T00:09:00.817Z,101190.50
2023-01-06T00:11:52.909Z,101189.78
2023-01-06T00:14:21.093Z,101195.19
2023-01-06T00:16:49.955Z,101188.19
2023-01-06T00:19:19.080Z,101183.72
2023-01-06T00:21:47.299Z,101188.31
2023-01-06T00:24:16.223Z,101188.44
2023-01-06T00:26:43.717Z,101180.56
2023-01-06T00:29:11.756Z,101175.38
2023-01-06T00:31:39.318Z,101184.19
2023-01-06T00:34:08.577Z,101182.50
2023-01-06T00:36:37.045Z,101172.84
2023-01-06T00:39:04.664Z,101169.09
2023-01-06T00:41:52.918Z,101172.00
2023-01-06T00:44:21.279Z,101161.47
2023-01-06T00:46:48.852Z,101166.94
2023-01-06T00:49:19.590Z,101159.94
2023-01-06T00:51:47.198Z,101157.28
2023-01-06T00:54:15.575Z,101166.09
2023-01-06T00:56:44.287Z,101165.25
2023-01-06T00:59:13.729Z,101159.78
2023-01-06T01:01:41.913Z,101159.22
2023-01-06T01:04:10.128Z,101163.69
2023-01-06T01:06:39.568Z,101151.81
2023-01-06T01:09:07.754Z,101144.09
2023-01-06T01:11:54.969Z,101146.75
2023-01-06T01:14:23.504Z,101148.44
2023-01-06T01:16:51.010Z,101141.44
2023-01-06T01:19:19.188Z,101141.19
2023-01-06T01:21:48.139Z,101142.78
2023-01-06T01:24:16.082Z,101140.69
2023-01-06T01:26:43.709Z,101141.81
2023-01-06T01:29:16.201Z,101148.31
2023-01-06T01:31:44.019Z,101145.91
2023-01-06T01:34:12.346Z,101139.84
2023-01-06T01:36:41.000Z,101134.41
2023-01-06T01:39:10.492Z,101138.78
2023-01-06T01:41:38.929Z,101137.81
2023-01-06T01:44:22.013Z,101133.34
2023-01-06T01:46:50.921Z,101134.66
2023-01-06T01:49:20.287Z,101133.81
2023-01-06T01:52:13.647Z,101130.03
2023-01-06T01:54:43.581Z,101129.19
2023-01-06T01:57:13.157Z,101127.38
2023-01-06T01:59:43.065Z,101135.13
2023-01-06T02:02:12.981Z,101127.16
2023-01-06T02:04:42.579Z,101131.41
2023-01-06T02:07:12.033Z,101140.31
2023-01-06T02:09:42.865Z,101133.81
2023-01-06T02:12:14.663Z,101133.94
2023-01-06T02:14:42.908Z,101141.91
2023-01-06T02:17:21.331Z,101138.41
2023-01-06T02:20:07.882Z,101133.56
2023-01-06T02:22:46.327Z,101129.34
2023-01-06T02:25:35.038Z,101132.84
2023-01-06T02:28:17.838Z,101132.97
2023-01-06T02:31:33.700Z,101125.34
2023-01-06T02:34:08.033Z,101116.88
2023-01-06T02:36:39.016Z,101119.75
2023-01-06T02:39:16.066Z,101114.94
2023-01-06T02:41:47.931Z,101115.06
2023-01-06T02:44:21.153Z,101106.13
2023-01-06T02:46:57.842Z,101099.81
2023-01-06T02:49:27.627Z,101094.16
2023-01-06T02:51:59.346Z,101103.72
2023-01-06T02:54:32.912Z,101101.16
2023-01-06T02:57:05.127Z,101107.09
2023-01-06T02:59:39.932Z,101100.94
2023-01-06T03:02:12.091Z,101099.72
2023-01-06T03:04:42.556Z,101094.88
2023-01-06T03:07:11.026Z,101098.28
2023-01-06T03:09:40.423Z,101097.53
2023-01-06T03:12:10.043Z,101087.78
2023-01-06T03:14:41.016Z,101073.75
2023-01-06T03:17:34.508Z,101081.47
2023-01-06T03:20:03.779Z,101082.56
2023-01-06T03:22:34.642Z,101076.25
2023-01-06T03:25:03.966Z,101075.41
2023-01-06T03:27:31.581Z,101078.09
2023-01-06T03:30:02.924Z,101079.78
2023-01-06T03:32:36.391Z,101072.75
2023-01-06T03:35:12.456Z,101071.19
2023-01-06T03:37:45.432Z,101066.75
2023-01-06T03:40:16.850Z,101072.66
2023-01-06T03:43:04.497Z,101073.50
2023-01-06T03:45:40.063Z,101072.25
2023-01-06T03:48:14.182Z,101062.25
2023-01-06T03:50:46.946Z,101062.13
2023-01-06T03:53:23.738Z,101061.66
2023-01-06T03:55:54.926Z,101066.09
2023-01-06T03:58:24.941Z,101051.88
2023-01-06T04:00:53.587Z,101050.66
2023-01-06T04:03:25.272Z,101055.22
2023-01-06T04:05:56.903Z,101037.97
2023-01-06T04:08:24.459Z,101042.31
2023-01-06T04:10:52.563Z,101038.09
2023-01-06T04:13:20.202Z,101032.88
2023-01-06T04:15:48.899Z,101023.31
2023-01-06T04:18:16.432Z,101025.97
2023-01-06T04:20:46.100Z,101018.97
2023-01-06T04:23:20.740Z,101012.81
2023-01-06T04:25:51.935Z,101021.31
2023-01-06T04:28:27.338Z,101015.47
2023-01-06T04:30:59.154Z,101008.94
2023-01-06T04:33:27.997Z,101006.19
2023-01-06T04:36:05.969Z,100996.44
2023-01-06T04:38:34.625Z,100987.44
2023-01-06T04:41:02.509Z,100989.97
2023-01-06T04:43:31.049Z,100999.06
2023-01-06T04:45:59.589Z,100993.34
2023-01-06T04:48:27.621Z,100981.84
2023-01-06T04:51:02.504Z,100986.31
2023-01-06T04:53:30.344Z,100985.75
2023-01-06T04:56:02.801Z,100990.94
2023-01-06T04:58:30.372Z,100989.25
2023-01-06T05:01:00.442Z,100998.41
2023-01-06T05:03:29.445Z,100981.47
2023-01-06T05:05:57.922Z,100978.63
2023-01-06T05:08:28.049Z,100972.41
2023-01-06T05:10:59.896Z,100970.25
2023-01-06T05:13:28.324Z,100962.66
2023-01-06T05:15:56.923Z,100951.88
2023-01-06T05:18:25.030Z,100958.66
2023-01-06T05:21:18.157Z,100966.16
2023-01-06T05:23:47.217Z,100963.00
2023-01-06T05:29:09.623Z,100963.63
2023-01-06T05:31:37.289Z,100958.78
2023-01-06T05:34:05.940Z,100963.22
2023-01-06T05:36:34.501Z,100954.41
2023-01-06T05:39:04.083Z,100956.97
2023-01-06T05:41:32.051Z,100962.00
2023-01-06T05:43:59.954Z,100954.03
2023-01-06T05:46:27.444Z,100950.28
2023-01-06T05:48:55.333Z,100951.00
2023-01-06T05:51:22.937Z,100949.41
2023-01-06T05:53:51.047Z,100957.81
2023-01-06T05:56:45.163Z,100954.41
2023-01-06T05:59:13.382Z,100957.66
2023-01-06T06:01:41.368Z,100960.94
2023-01-06T06:04:09.136Z,100955.38
2023-01-06T06:06:36.770Z,100962.28
2023-01-06T06:09:05.775Z,100966.25
2023-01-06T06:11:57.795Z,100960.78
2023-01-06T06:14:27.992Z,100956.56
2023-01-06T06:16:56.527Z,100953.38
2023-01-06T06:19:24.316Z,100956.31
2023-01-06T06:21:51.992Z,100946.88
2023-01-06T06:24:19.469Z,100954.81
2023-01-06T06:27:12.764Z,100942.22
2023-01-06T06:29:41.723Z,100945.66
2023-01-06T06:32:09.180Z,100950.16
2023-01-06T06:34:40.286Z,100951.13
2023-01-06T06:37:10.805Z,100947.63
2023-01-06T06:39:41.217Z,100953.97
2023-01-06T06:42:09.032Z,100956.09
2023-01-06T06:44:37.199Z,100962.94
2023-01-06T06:47:08.074Z,100954.66
2023-01-06T06:49:35.914Z,100947.41
2023-01-06T06:52:05.396Z,100951.06
2023-01-06T06:54:35.177Z,100941.25
2023-01-06T06:57:27.960Z,100956.78
2023-01-06T06:59:59.935Z,100952.28
2023-01-06T07:02:30.738Z,100949.34
2023-01-06T07:04:58.596Z,100953.13
2023-01-06T07:07:26.100Z,100948.81
2023-01-06T07:09:54.301Z,100943.91
2023-01-06T07:12:23.946Z,100941.81
2023-01-06T07:14:51.446Z,100938.00
2023-01-06T07:17:19.030Z,100934.22
2023-01-06T07:19:48.856Z,100922.38
2023-01-06T07:22:16.388Z,100924.56
2023-01-06T07:24:45.234Z,100915.09
2023-01-06T07:27:13.058Z,100910.63
2023-01-06T07:29:40.527Z,100901.38
2023-01-06T07:32:10.210Z,100908.28
2023-01-06T07:34:38.063Z,100905.03
2023-01-06T07:37:08.919Z,100910.44
2023-01-06T07:39:36.455Z,100909.59
2023-01-06T07:42:04.934Z,100897.44
2023-01-06T07:44:57.799Z,100889.59
2023-01-06T07:47:27.957Z,100896.75
2023-01-06T07:49:55.468Z,100890.84
2023-01-06T07:52:24.691Z,100895.91
2023-01-06T07:54:52.232Z,100895.06
2023-01-06T07:57:19.710Z,100897.19
2023-01-06T07:59:47.328Z,100907.25
2023-01-06T08:02:14.877Z,100914.06
2023-01-06T08:04:42.373Z,100909.66
2023-01-06T08:07:10.155Z,100901.66
2023-01-06T08:09:39.917Z,100918.72
2023-01-06T08:12:12.013Z,100911.34
2023-01-06T08:14:39.518Z,100918.88
2023-01-06T08:17:07.357Z,100929.69
2023-01-06T08:19:34.911Z,100922.69
2023-01-06T08:22:03.389Z,100931.03
2023-01-06T08:24:32.637Z,100924.88
2023-01-06T08:27:01.723Z,100925.72
2023-01-06T08:29:29.254Z,100935.44
2023-01-06T08:32:10.004Z,100924.50
2023-01-06T08:34:38.491Z,100929.81
2023-01-06T08:37:06.231Z,100934.59
2023-01-06T08:39:33.778Z,100944.88
2023-01-06T08:42:26.725Z,100932.69
2023-01-06T08:44:55.608Z,100931.69
2023-01-06T08:47:23.352Z,100929.88
2023-01-06T08:49:50.845Z,100960.38
2023-01-06T08:52:18.373Z,100960.13
2023-01-06T08:54:45.859Z,100957.06
2023-01-06T08:57:15.740Z,100957.31
2023-01-06T08:59:43.305Z,100960.97
2023-01-06T09:02:12.410Z,100962.66
2023-01-06T09:04:41.366Z,100967.84
2023-01-06T09:07:08.922Z,100957.31
2023-01-06T09:09:38.956Z,100963.75
2023-01-06T09:12:08.140Z,100968.13
2023-01-06T09:14:35.650Z,100969.19
2023-01-06T09:17:03.962Z,100976.09
2023-01-06T09:19:33.732Z,100972.69
2023-01-06T09:22:01.283Z,100982.78
2023-01-06T09:24:28.775Z,100982.13
2023-01-06T09:26:56.360Z,100984.94
2023-01-06T09:29:23.887Z,100982.25
2023-01-06T09:31:55.054Z,100979.31
2023-01-06T09:34:22.569Z,100986.22
2023-01-06T09:36:52.103Z,100993.00
2023-01-06T09:39:19.739Z,100986.47
2023-01-06T09:41:55.788Z,100994.41
2023-01-06T09:44:26.418Z,101011.38
2023-01-06T09:46:54.214Z,101006.25
2023-01-06T09:49:25.815Z,101005.53
2023-01-06T09:54:54.651Z,101009.78
2023-01-06T09:57:23.449Z,101012.63
2023-01-06T09:59:53.946Z,101008.53
2023-01-06T10:02:24.029Z,101018.34
2023-01-06T10:04:51.943Z,101013.59
2023-01-06T10:07:25.275Z,101015.72
2023-01-06T10:12:58.968Z,101027.34
2023-01-06T10:15:33.419Z,101030.16
2023-01-06T10:18:07.207Z,101025.28
2023-01-06T10:20:47.712Z,101020.53
2023-01-06T10:23:25.231Z,101021.25
2023-01-06T10:25:54.960Z,101019.34
2023-01-06T10:28:29.462Z,101030.50
2023-01-06T10:31:00.987Z,101026.59
2023-01-06T10:33:34.508Z,101030.59
2023-01-06T10:36:02.087Z,101034.47
2023-01-06T10:38:34.901Z,101036.03
2023-01-06T10:41:12.948Z,101034.47
2023-01-06T10:43:41.288Z,101046.69
2023-01-06T10:46:09.726Z,101044.03
2023-01-06T10:48:39.394Z,101052.16
2023-01-06T10:51:21.058Z,101052.19
2023-01-06T10:53:53.651Z,101051.34
2023-01-06T10:56:21.273Z,101054.72
2023-01-06T10:58:50.948Z,101048.47
2023-01-06T11:01:24.275Z,101062.84
2023-01-06T11:04:06.626Z,101058.75
2023-01-06T11:06:35.093Z,101051.38
2023-01-06T11:09:09.844Z,101040.19
2023-01-06T11:11:46.816Z,101046.94
2023-01-06T11:14:39.982Z,101045.94
2023-01-06T11:17:10.568Z,101049.94
2023-01-06T11:19:40.183Z,101042.41
2023-01-06T11:22:27.696Z,101035.91
2023-01-06T11:24:59.935Z,101036.28
2023-01-06T11:27:28.298Z,101038.41
2023-01-06T11:29:57.955Z,101031.53
2023-01-06T11:32:27.646Z,101011.63
2023-01-06T11:34:56.272Z,101028.75
2023-01-06T11:37:31.367Z,101027.19
2023-01-06T11:40:10.316Z,101031.56
2023-01-06T11:45:07.705Z,101035.34
2023-01-06T11:47:35.348Z,101050.81
2023-01-06T11:50:05.118Z,101047.84
2023-01-06T11:52:34.073Z,101034.94
2023-01-06T11:55:15.060Z,101036.34
2023-01-06T11:57:43.288Z,101037.47
2023-01-06T12:00:23.968Z,101038.72
2023-01-06T12:02:54.090Z,101037.84
2023-01-06T12:05:27.044Z,101036.31
2023-01-06T12:07:57.957Z,101041.69
2023-01-06T12:10:31.602Z,101050.09
2023-01-06T12:13:00.964Z,101052.91
2023-01-06T12:15:30.338Z,101057.78
2023-01-06T12:18:02.470Z,101057.25
2023-01-06T12:20:32.089Z,101056.41
2023-01-06T12:23:02.958Z,101062.72
2023-01-06T12:25:34.095Z,101056.25
2023-01-06T12:28:05.944Z,101052.34
2023-01-06T12:30:35.526Z,101046.56
2023-01-06T12:33:06.970Z,101051.78
2023-01-06T12:35:37.522Z,101038.44
2023-01-06T12:38:10.965Z,101037.72
2023-01-06T12:40:43.657Z,101038.28
2023-01-06T12:43:16.041Z,101045.91
2023-01-06T12:45:56.679Z,101052.22
2023-01-06T12:48:27.960Z,101056.97
2023-01-06T12:51:23.906Z,101054.03
2023-01-06T12:53:56.363Z,101062.56
2023-01-06T12:56:41.085Z,101051.38
2023-01-06T12:59:13.251Z,101057.66
2023-01-06T13:02:13.333Z,101059.34
2023-01-06T13:04:53.436Z,101065.00
2023-01-06T13:07:30.477Z,101063.28
2023-01-06T13:10:00.418Z,101065.56
2023-01-06T13:12:36.503Z,101059.66
2023-01-06T13:15:07.159Z,101047.28
2023-01-06T13:17:37.779Z,101054.31
2023-01-06T13:20:08.520Z,101059.53
2023-01-06T13:22:43.787Z,101058.50
2023-01-06T13:25:28.589Z,101059.91
2023-01-06T13:28:02.431Z,101055.00
2023-01-06T13:30:40.010Z,101048.28
2023-01-06T13:33:18.195Z,101049.78
2023-01-06T13:36:00.985Z,101054.56
2023-01-06T13:38:43.123Z,101060.63
2023-01-06T13:41:15.816Z,101066.09
2023-01-06T13:43:46.297Z,101073.41
2023-01-06T13:46:16.428Z,101062.41
2023-01-06T13:48:45.110Z,101062.41
2023-01-06T13:51:13.969Z,101071.38
2023-01-06T13:53:42.723Z,101064.13
2023-01-06T13:56:23.985Z,101057.63
2023-01-06T13:59:13.909Z,101070.13
2023-01-06T14:01:43.505Z,101053.69
2023-01-06T14:04:29.819Z,101057.47
2023-01-06T14:06:57.967Z,101063.66
2023-01-06T14:09:25.703Z,101070.81
2023-01-06T14:11:54.139Z,101065.31
2023-01-06T14:14:26.965Z,101072.50
2023-01-06T14:16:57.303Z,101069.81
2023-01-06T14:19:27.933Z,101060.28
2023-01-06T14:21:57.082Z,101065.31
2023-01-06T14:24:28.366Z,101060.84
2023-01-06T14:26:58.355Z,101058.97
2023-01-06T14:29:44.911Z,101070.34
2023-01-06T14:32:34.143Z,101065.41
2023-01-06T14:35:03.351Z,101065.72
2023-01-06T14:37:43.622Z,101067.97
2023-01-06T14:40:19.214Z,101064.03
2023-01-06T14:42:47.343Z,101069.34
2023-01-06T14:45:18.240Z,101065.00
2023-01-06T14:47:48.729Z,101065.84
2023-01-06T14:50:18.705Z,101063.72
2023-01-06T14:52:49.821Z,101062.00
2023-01-06T14:55:19.021Z,101056.97
2023-01-06T14:57:50.522Z,101061.69
2023-01-06T15:00:20.612Z,101063.38
2023-01-06T15:05:43.195Z,101068.84
2023-01-06T15:08:16.976Z,101068.56
2023-01-06T15:10:45.709Z,101076.94
2023-01-06T15:13:21.982Z,101077.47
2023-01-06T15:15:53.434Z,101077.75
2023-01-06T15:18:22.975Z,101071.13
2023-01-06T15:20:50.652Z,101077.69
2023-01-06T15:23:19.813Z,101078.22
2023-01-06T15:25:48.932Z,101075.69
2023-01-06T15:28:24.740Z,101085.06
2023-01-06T15:30:52.361Z,101082.06
2023-01-06T15:33:21.131Z,101087.78
2023-01-06T15:35:50.940Z,101095.19
2023-01-06T15:38:24.657Z,101097.28
2023-01-06T15:40:52.726Z,101096.09
2023-01-06T15:43:27.142Z,101096.72
2023-01-06T15:45:59.001Z,101098.81
2023-01-06T15:48:29.095Z,101106.19
2023-01-06T15:50:59.771Z,101104.91
2023-01-06T15:53:32.455Z,101101.78
2023-01-06T15:56:02.213Z,101099.50
2023-01-06T15:58:31.425Z,101095.75
2023-01-06T16:01:00.969Z,101090.34
2023-01-06T16:03:30.100Z,101097.13
2023-01-06T16:06:11.141Z,101090.28
2023-01-06T16:08:41.131Z,101087.72
2023-01-06T16:11:40.659Z,101085.56
2023-01-06T16:14:23.047Z,101089.47
2023-01-06T16:16:52.011Z,101088.72
2023-01-06T16:19:21.283Z,101090.66
2023-01-06T16:21:53.375Z,101090.91
2023-01-06T16:24:23.078Z,101090.28
2023-01-06T16:26:52.590Z,101089.31
2023-01-06T16:29:26.198Z,101089.13
2023-01-06T16:31:55.350Z,101099.28
2023-01-06T16:34:28.380Z,101106.53
2023-01-06T16:36:58.384Z,101099.75
2023-01-06T16:39:26.359Z,101111.47
2023-01-06T16:42:32.711Z,101108.38
2023-01-06T16:45:01.248Z,101102.44
2023-01-06T16:47:29.150Z,101115.09
2023-01-06T16:49:57.695Z,101115.25
2023-01-06T16:52:28.997Z,101104.75
2023-01-06T16:54:58.292Z,101106.44
2023-01-06T16:57:26.143Z,101116.81
2023-01-06T16:59:53.828Z,101114.41
2023-01-06T17:02:21.440Z,101110.06
2023-01-06T17:04:49.318Z,101111.13
2023-01-06T17:07:17.133Z,101131.44
2023-01-06T17:09:46.966Z,101122.63
2023-01-06T17:12:36.158Z,101122.63
2023-01-06T17:15:05.771Z,101118.25
2023-01-06T17:17:34.010Z,101129.84
2023-01-06T17:20:02.380Z,101129.72
2023-01-06T17:22:31.101Z,101124.19
2023-01-06T17:25:02.831Z,101123.47
2023-01-06T17:27:31.001Z,101121.66
2023-01-06T17:30:01.245Z,101125.16
2023-01-06T17:32:30.920Z,101122.50
2023-01-06T17:34:58.644Z,101117.31
2023-01-06T17:37:30.039Z,101111.25
2023-01-06T17:39:58.001Z,101116.44
2023-01-06T17:42:30.581Z,101117.06
2023-01-06T17:44:59.507Z,101114.75
2023-01-06T17:47:29.048Z,101124.66
2023-01-06T17:49:57.621Z,101120.06
2023-01-06T17:52:30.527Z,101112.94
2023-01-06T17:55:20.005Z,101124.19
2023-01-06T17:57:50.006Z,101123.34
2023-01-06T18:00:23.288Z,101126.00
2023-01-06T18:02:54.188Z,101138.94
2023-01-06T18:05:41.409Z,101146.91
2023-01-06T18:08:13.259Z,101147.63
2023-01-06T18:10:43.231Z,101138.66
2023-01-06T18:13:14.991Z,101133.22
2023-01-06T18:15:42.904Z,101133.00
2023-01-06T18:18:17.284Z,101142.66
2023-01-06T18:20:46.669Z,101136.50
2023-01-06T18:23:19.580Z,101145.09
2023-01-06T18:25:47.128Z,101134.44
2023-01-06T18:28:18.389Z,101133.59
2023-01-06T18:30:46.719Z,101135.28
2023-01-06T18:33:18.122Z,101136.25
2023-01-06T18:35:46.804Z,101139.88
2023-01-06T18:38:14.362Z,101147.84
2023-01-06T18:40:42.552Z,101149.78
2023-01-06T18:43:20.265Z,101152.44
2023-01-06T18:45:51.515Z,101155.94
2023-01-06T18:48:24.922Z,101153.06
2023-01-06T18:50:53.120Z,101157.28
2023-01-06T18:53:26.074Z,101150.75
2023-01-06T18:55:55.114Z,101151.81
2023-01-06T18:58:33.323Z,101148.19
2023-01-06T19:01:02.128Z,101145.31
2023-01-06T19:03:31.283Z,101140.69
2023-01-06T19:06:07.538Z,101142.16
2023-01-06T19:08:38.142Z,101145.16
2023-01-06T19:11:12.594Z,101147.69
2023-01-06T19:13:41.487Z,101148.66
2023-01-06T19:16:23.303Z,101150.25
2023-01-06T19:18:50.880Z,101137.81
2023-01-06T19:21:18.521Z,101130.53
2023-01-06T19:23:46.132Z,101124.25
2023-01-06T19:26:19.844Z,101129.00
2023-01-06T19:28:53.117Z,101127.88
2023-01-06T19:31:23.291Z,101127.88
2023-01-06T19:33:53.883Z,101127.66
2023-01-06T19:36:38.612Z,101119.53
2023-01-06T19:39:16.299Z,101119.28
2023-01-06T19:41:44.365Z,101113.03
2023-01-06T19:44:14.289Z,101110.47
2023-01-06T19:46:42.939Z,101105.75
2023-01-06T19:49:20.558Z,101112.88
2023-01-06T19:51:49.336Z,101108.41
2023-01-06T19:54:27.400Z,101102.84
2023-01-06T19:56:55.647Z,101108.53
2023-01-06T19:59:26.434Z,101104.81
2023-01-06T20:01:58.280Z,101103.00
2023-01-06T20:04:27.110Z,101100.34
2023-01-06T20:06:55.993Z,101102.75
2023-01-06T20:09:23.577Z,101101.78
2023-01-06T20:11:51.742Z,101094.41
2023-01-06T20:14:19.823Z,101105.38
2023-01-06T20:16:49.133Z,101097.91
2023-01-06T20:19:17.530Z,101097.63
2023-01-06T20:21:46.030Z,101091.09
2023-01-06T20:24:14.248Z,101096.16
2023-01-06T20:26:41.842Z,101098.94
2023-01-06T20:29:09.410Z,101098.72
2023-01-06T20:31:36.979Z,101101.94
2023-01-06T20:34:05.898Z,101100.13
2023-01-06T20:36:33.445Z,101102.69
2023-01-06T20:39:02.334Z,101098.78
2023-01-06T20:41:30.004Z,101100.09
2023-01-06T20:43:58.360Z,101100.22
2023-01-06T20:46:26.352Z,101100.22
2023-01-06T20:48:53.924Z,101096.34
2023-01-06T20:51:22.841Z,101096.59
2023-01-06T20:53:50.388Z,101097.44
2023-01-06T20:56:18.793Z,101101.91
2023-01-06T20:58:47.302Z,101095.94
2023-01-06T21:01:14.857Z,101098.28
2023-01-06T21:03:42.477Z,101092.09
2023-01-06T21:06:10.276Z,101090.94
2023-01-06T21:08:39.119Z,101084.44
2023-01-06T21:11:06.756Z,101090.88
2023-01-06T21:13:34.237Z,101094.25
2023-01-06T21:16:02.994Z,101094.25
2023-01-06T21:18:31.439Z,101100.19
2023-01-06T21:20:59.081Z,101092.19
2023-01-06T21:23:27.865Z,101097.75
2023-01-06T21:25:56.771Z,101091.34
2023-01-06T21:28:24.332Z,101093.03
2023-01-06T21:30:51.878Z,101090.38
2023-01-06T21:33:21.570Z,101082.97
2023-01-06T21:35:49.377Z,101083.38
2023-01-06T21:38:17.225Z,101086.59
2023-01-06T21:40:44.808Z,101090.09
2023-01-06T21:43:12.736Z,101099.19
2023-01-06T21:45:40.959Z,101093.28
2023-01-06T21:48:09.041Z,101103.31
2023-01-06T21:50:38.184Z,101106.66
2023-01-06T21:53:07.321Z,101094.00
2023-01-06T21:55:34.876Z,101094.72
2023-01-06T21:58:02.543Z,101090.50
2023-01-06T22:00:31.495Z,101091.47
2023-01-06T22:02:59.397Z,101096.69
2023-01-06T22:05:27.657Z,101097.50
2023-01-06T22:07:55.209Z,101098.34
2023-01-06T22:10:23.903Z,101094.59
2023-01-06T22:12:52.711Z,101090.25
2023-01-06T22:15:20.969Z,101089.66
2023-01-06T22:17:50.632Z,101097.66
2023-01-06T22:20:18.514Z,101087.84
2023-01-06T22:22:47.115Z,101094.84
2023-01-06T22:25:14.897Z,101098.22
2023-01-06T22:27:42.463Z,101092.06
2023-01-06T22:30:10.865Z,101103.69
2023-01-06T22:32:44.676Z,101103.53
2023-01-06T22:35:14.144Z,101096.53
2023-01-06T22:37:41.680Z,101108.03
2023-01-06T22:40:10.205Z,101098.22
2023-01-06T22:42:41.505Z,101099.66
2023-01-06T22:45:13.026Z,101090.00
2023-01-06T22:47:40.591Z,101084.91
2023-01-06T22:50:08.913Z,101085.91
2023-01-06T22:52:37.799Z,101087.94
2023-01-06T22:55:05.797Z,101090.50
2023-01-06T22:57:33.369Z,101099.44
2023-01-06T23:00:00.927Z,101098.72
2023-01-06T23:02:29.484Z,101091.88
2023-01-06T23:04:58.131Z,101093.69
2023-01-06T23:07:25.659Z,101088.38
2023-01-06T23:09:54.850Z,101094.53
2023-01-06T23:12:22.411Z,101107.00
2023-01-06T23:14:50.032Z,101098.03
2023-01-06T23:17:17.528Z,101094.38
2023-01-06T23:19:45.061Z,101099.84
2023-01-06T23:22:12.773Z,101101.41
2023-01-06T23:24:40.250Z,101097.75
2023-01-06T23:27:11.101Z,101094.13
2023-01-06T23:29:38.669Z,101087.25
2023-01-06T23:32:06.200Z,101097.91
2023-01-06T23:34:33.729Z,101088.78
2023-01-06T23:37:01.448Z,101095.94
2023-01-06T23:39:29.000Z,101097.66
2023-01-06T23:41:56.541Z,101094.00
2023-01-06T23:44:25.482Z,101088.09
2023-01-06T23:46:52.968Z,101092.34
2023-01-06T23:49:20.469Z,101085.28
2023-01-06T23:51:48.031Z,101090.03
2023-01-06T23:54:15.760Z,101086.41
2023-01-06T23:56:43.994Z,101090.38
2023-01-06T23:59:12.772Z,101089.53
